createdAt,value
2023-05-30T00:01:08.508Z,67.65
2023-05-30T00:03:38.297Z,67.82
2023-05-30T00:04:32.909Z,67.29
2023-05-30T00:06:06.555Z,67.91
2023-05-30T00:08:33.676Z,68.05
2023-05-30T00:11:00.789Z,68.17
2023-05-30T00:13:41.633Z,68.13
2023-05-30T00:16:08.881Z,68.64
2023-05-30T00:18:36.014Z,68.80
2023-05-30T00:21:07.567Z,68.71
2023-05-30T00:23:36.966Z,68.20
2023-05-30T00:26:05.058Z,68.39
2023-05-30T00:28:32.212Z,68.38
2023-05-30T00:30:59.511Z,68.54
2023-05-30T00:33:27.350Z,68.73
2023-05-30T00:35:54.301Z,68.92
2023-05-30T00:41:14.513Z,68.76
2023-05-30T00:47:17.670Z,68.51
2023-05-30T00:49:09.069Z,69.00
2023-05-30T00:51:36.402Z,69.75
2023-05-30T00:54:04.380Z,70.01
2023-05-30T00:56:31.906Z,69.87
2023-05-30T00:59:00.717Z,70.11
2023-05-30T01:01:27.957Z,69.77
2023-05-30T01:03:57.765Z,70.38
2023-05-30T01:06:28.273Z,70.67
2023-05-30T01:08:55.635Z,70.72
2023-05-30T01:11:31.857Z,70.69
2023-05-30T01:14:17.937Z,70.39
2023-05-30T01:17:17.434Z,70.71
2023-05-30T01:20:17.983Z,70.55
2023-05-30T01:23:40.887Z,70.46
2023-05-30T01:26:32.745Z,70.71
2023-05-30T01:29:04.005Z,70.46
2023-05-30T01:31:33.889Z,70.38
2023-05-30T01:34:02.490Z,70.78
2023-05-30T01:36:31.952Z,70.63
2023-05-30T01:38:59.334Z,70.75
2023-05-30T01:41:38.220Z,70.84
2023-05-30T01:44:31.228Z,71.34
2023-05-30T01:47:15.063Z,71.53
2023-05-30T01:50:01.049Z,71.81
2023-05-30T01:52:32.991Z,71.20
2023-05-30T01:55:07.254Z,71.47
2023-05-30T01:57:47.209Z,71.82
2023-05-30T02:00:16.371Z,71.92
2023-05-30T02:02:45.959Z,71.72
2023-05-30T02:05:13.496Z,71.74
2023-05-30T02:07:40.817Z,72.33
2023-05-30T02:10:08.298Z,72.27
2023-05-30T02:12:36.455Z,71.90
2023-05-30T02:15:05.013Z,72.13
2023-05-30T02:17:33.578Z,72.22
2023-05-30T02:20:01.236Z,72.89
2023-05-30T02:22:36.059Z,73.06
2023-05-30T02:25:03.580Z,73.03
2023-05-30T02:27:30.884Z,72.98
2023-05-30T02:29:58.196Z,73.00
2023-05-30T02:32:25.396Z,73.24
2023-05-30T02:34:53.138Z,73.41
2023-05-30T02:37:20.166Z,73.86
2023-05-30T02:39:47.116Z,73.69
2023-05-30T02:42:14.073Z,73.91
2023-05-30T02:44:41.059Z,73.87
2023-05-30T02:47:10.016Z,73.87
2023-05-30T02:49:37.316Z,74.15
2023-05-30T02:52:05.243Z,74.67
2023-05-30T02:54:40.982Z,74.62
2023-05-30T02:57:26.458Z,74.25
2023-05-30T03:00:22.801Z,74.42
2023-05-30T03:03:13.214Z,74.29
2023-05-30T03:05:49.150Z,74.86
2023-05-30T03:08:32.024Z,74.63
2023-05-30T03:10:59.788Z,74.72
2023-05-30T03:13:27.078Z,73.95
2023-05-30T03:15:54.857Z,74.64
2023-05-30T03:18:21.796Z,75.29
2023-05-30T03:20:49.208Z,74.83
2023-05-30T03:23:17.631Z,74.56
2023-05-30T03:25:45.171Z,75.48
2023-05-30T03:28:12.433Z,75.68
2023-05-30T03:30:59.643Z,75.88
2023-05-30T03:33:29.374Z,75.52
2023-05-30T03:35:57.096Z,75.98
2023-05-30T03:38:24.045Z,75.59
2023-05-30T03:40:51.085Z,75.41
2023-05-30T03:43:18.011Z,75.15
2023-05-30T03:45:45.398Z,74.99
2023-05-30T03:48:12.809Z,75.37
2023-05-30T03:50:39.755Z,75.69
2023-05-30T03:53:07.026Z,75.03
2023-05-30T03:55:36.675Z,75.42
2023-05-30T03:58:03.864Z,75.67
2023-05-30T04:00:32.123Z,75.63
2023-05-30T04:03:02.064Z,75.94
2023-05-30T04:05:29.070Z,76.27
2023-05-30T04:07:56.144Z,75.62
2023-05-30T04:10:23.358Z,75.91
2023-05-30T04:12:52.260Z,75.50
2023-05-30T04:15:19.383Z,76.25
2023-05-30T04:17:47.178Z,76.06
2023-05-30T04:20:16.325Z,76.50
2023-05-30T04:22:44.948Z,76.71
2023-05-30T04:25:13.739Z,76.26
2023-05-30T04:27:49.408Z,76.09
2023-05-30T04:30:18.490Z,76.41
2023-05-30T04:32:46.418Z,76.33
2023-05-30T04:35:17.081Z,76.25
2023-05-30T04:37:45.562Z,76.07
2023-05-30T04:40:14.238Z,76.46
2023-05-30T04:42:43.345Z,76.44
2023-05-30T04:45:11.712Z,76.54
2023-05-30T04:47:40.212Z,76.34
2023-05-30T04:50:08.244Z,76.56
2023-05-30T04:52:35.395Z,76.29
2023-05-30T04:55:02.649Z,76.51
2023-05-30T04:57:30.084Z,76.36
2023-05-30T04:59:58.411Z,76.59
2023-05-30T05:02:29.956Z,76.75
2023-05-30T05:04:57.521Z,76.57
2023-05-30T05:07:37.978Z,76.14
2023-05-30T05:10:07.874Z,76.47
2023-05-30T05:12:34.871Z,76.17
2023-05-30T05:15:01.900Z,76.73
2023-05-30T05:17:29.210Z,77.01
2023-05-30T05:19:57.004Z,76.80
2023-05-30T05:22:24.031Z,76.53
2023-05-30T05:24:51.387Z,76.39
2023-05-30T05:27:18.523Z,76.22
2023-05-30T05:29:45.419Z,76.19
2023-05-30T05:32:12.409Z,76.10
2023-05-30T05:34:39.333Z,76.13
2023-05-30T05:37:06.716Z,76.19
2023-05-30T05:39:33.680Z,76.41
2023-05-30T05:42:02.475Z,75.73
2023-05-30T05:44:31.161Z,75.94
2023-05-30T05:46:59.963Z,75.04
2023-05-30T05:49:27.088Z,74.86
2023-05-30T05:51:54.847Z,74.54
2023-05-30T05:54:21.751Z,74.04
2023-05-30T05:56:49.007Z,74.12
2023-05-30T05:59:16.476Z,74.10
2023-05-30T06:01:46.499Z,74.50
2023-05-30T06:04:13.775Z,74.16
2023-05-30T06:06:40.987Z,74.54
2023-05-30T06:09:08.122Z,74.16
2023-05-30T06:11:35.086Z,74.28
2023-05-30T06:14:02.119Z,73.74
2023-05-30T06:16:29.253Z,73.93
2023-05-30T06:18:56.271Z,73.72
2023-05-30T06:21:23.603Z,73.41
2023-05-30T06:23:50.679Z,73.13
2023-05-30T06:26:17.745Z,72.77
2023-05-30T06:28:48.875Z,72.34
2023-05-30T06:31:16.182Z,71.97
2023-05-30T06:33:43.313Z,72.10
2023-05-30T06:36:11.503Z,71.99
2023-05-30T06:38:38.523Z,71.28
2023-05-30T06:41:05.539Z,71.92
2023-05-30T06:43:32.474Z,71.99
2023-05-30T06:45:59.509Z,71.49
2023-05-30T06:48:26.708Z,71.19
2023-05-30T06:50:54.768Z,71.08
2023-05-30T06:53:22.875Z,71.10
2023-05-30T06:55:50.116Z,70.81
2023-05-30T06:58:19.346Z,70.93
2023-05-30T07:00:46.601Z,70.85
2023-05-30T07:03:13.730Z,70.99
2023-05-30T07:05:40.903Z,71.11
2023-05-30T07:08:08.278Z,71.12
2023-05-30T07:10:36.253Z,70.71
2023-05-30T07:13:04.036Z,70.37
2023-05-30T07:15:32.579Z,70.28
2023-05-30T07:17:59.943Z,69.87
2023-05-30T07:20:27.244Z,69.44
2023-05-30T07:22:55.154Z,69.55
2023-05-30T07:25:22.014Z,69.90
2023-05-30T07:27:48.967Z,69.21
2023-05-30T07:30:16.006Z,68.55
2023-05-30T07:32:43.087Z,67.57
2023-05-30T07:35:10.089Z,67.23
2023-05-30T07:37:38.225Z,66.23
2023-05-30T07:40:06.569Z,65.98
2023-05-30T07:42:40.127Z,66.63
2023-05-30T07:45:07.965Z,66.06
2023-05-30T07:47:36.746Z,65.64
2023-05-30T07:50:04.138Z,65.24
2023-05-30T07:52:31.402Z,64.85
2023-05-30T07:54:58.340Z,64.90
2023-05-30T07:57:25.452Z,64.90
2023-05-30T07:59:52.527Z,64.26
2023-05-30T08:02:20.612Z,63.44
2023-05-30T08:04:47.782Z,63.32
2023-05-30T08:07:14.868Z,62.32
2023-05-30T08:09:42.043Z,62.26
2023-05-30T08:12:18.622Z,61.26
2023-05-30T08:14:46.427Z,61.10
2023-05-30T08:17:20.099Z,61.68
2023-05-30T08:19:47.033Z,61.20
2023-05-30T08:22:13.943Z,60.08
2023-05-30T08:24:44.562Z,59.78
2023-05-30T08:27:11.835Z,59.60
2023-05-30T08:29:39.521Z,60.15
2023-05-30T08:32:07.193Z,59.70
2023-05-30T08:34:34.198Z,59.12
2023-05-30T08:37:01.181Z,58.94
2023-05-30T08:39:28.159Z,58.88
2023-05-30T08:41:55.162Z,58.62
2023-05-30T08:44:22.098Z,58.95
2023-05-30T08:46:49.159Z,57.54
2023-05-30T08:49:23.173Z,57.89
2023-05-30T08:51:51.305Z,58.00
2023-05-30T08:54:27.243Z,58.06
2023-05-30T08:57:06.217Z,58.57
2023-05-30T08:59:33.531Z,57.92
2023-05-30T09:02:01.915Z,56.55
2023-05-30T09:04:30.930Z,57.03
2023-05-30T09:06:58.516Z,56.27
2023-05-30T09:09:25.686Z,56.61
2023-05-30T09:11:53.539Z,56.26
2023-05-30T09:14:21.550Z,55.28
2023-05-30T09:16:48.891Z,55.80
2023-05-30T09:19:17.221Z,54.76
2023-05-30T09:21:45.046Z,54.80
2023-05-30T09:24:12.062Z,54.04
2023-05-30T09:26:39.977Z,54.11
2023-05-30T09:29:11.922Z,53.17
2023-05-30T09:31:39.332Z,53.21
2023-05-30T09:34:09.049Z,52.52
2023-05-30T09:36:36.650Z,52.25
2023-05-30T09:39:08.028Z,51.44
2023-05-30T09:41:36.024Z,51.57
2023-05-30T09:44:07.297Z,51.54
2023-05-30T09:46:36.447Z,51.55
2023-05-30T09:49:14.232Z,50.70
2023-05-30T09:51:42.434Z,51.99
2023-05-30T09:54:10.855Z,51.92
2023-05-30T09:56:42.253Z,49.94
2023-05-30T09:59:11.692Z,50.08
2023-05-30T10:01:49.687Z,50.06
2023-05-30T10:04:22.908Z,49.76
2023-05-30T10:06:54.790Z,49.71
2023-05-30T10:09:24.081Z,49.50
2023-05-30T10:11:52.886Z,49.10
2023-05-30T10:14:20.469Z,49.28
2023-05-30T10:16:53.076Z,48.94
2023-05-30T10:19:27.255Z,48.63
2023-05-30T10:21:59.884Z,47.38
2023-05-30T10:24:27.687Z,47.31
2023-05-30T10:27:03.002Z,47.52
2023-05-30T10:29:42.104Z,47.55
2023-05-30T10:32:09.233Z,48.22
2023-05-30T10:34:49.444Z,48.14
2023-05-30T10:37:17.634Z,47.91
2023-05-30T10:40:11.786Z,47.92
2023-05-30T10:42:57.364Z,48.33
2023-05-30T10:45:53.256Z,49.09
2023-05-30T10:48:27.507Z,48.65
2023-05-30T10:51:00.965Z,47.69
2023-05-30T10:53:29.137Z,47.42
2023-05-30T10:55:56.736Z,47.74
2023-05-30T10:58:43.536Z,47.58
2023-05-30T11:01:25.257Z,48.26
2023-05-30T11:04:15.613Z,48.90
2023-05-30T11:06:47.268Z,46.87
2023-05-30T11:09:17.083Z,47.37
2023-05-30T11:11:55.996Z,47.07
2023-05-30T11:14:37.141Z,45.48
2023-05-30T11:17:09.647Z,45.43
2023-05-30T11:19:40.118Z,45.99
2023-05-30T11:22:11.653Z,46.73
2023-05-30T11:24:39.276Z,47.67
2023-05-30T11:27:09.195Z,47.81
2023-05-30T11:29:38.088Z,47.73
2023-05-30T11:32:08.664Z,46.32
2023-05-30T11:34:36.465Z,44.17
2023-05-30T11:37:05.107Z,45.14
2023-05-30T11:39:33.651Z,45.87
2023-05-30T11:42:02.305Z,45.28
2023-05-30T11:44:33.196Z,45.20
2023-05-30T11:47:31.713Z,44.57
2023-05-30T11:49:59.151Z,45.12
2023-05-30T11:52:26.507Z,44.24
2023-05-30T11:55:00.078Z,45.26
2023-05-30T11:57:28.699Z,45.75
2023-05-30T11:59:57.302Z,45.75
2023-05-30T12:02:33.936Z,45.70
2023-05-30T12:05:03.147Z,45.08
2023-05-30T12:07:33.192Z,45.47
2023-05-30T12:10:00.321Z,45.04
2023-05-30T12:12:28.521Z,44.63
2023-05-30T12:15:00.357Z,44.89
2023-05-30T12:17:28.161Z,44.66
2023-05-30T12:20:01.223Z,44.15
2023-05-30T12:22:34.563Z,43.77
2023-05-30T12:25:10.644Z,43.56
2023-05-30T12:27:48.244Z,43.89
2023-05-30T12:30:18.159Z,43.47
2023-05-30T12:32:48.751Z,42.87
2023-05-30T12:35:19.573Z,42.74
2023-05-30T12:37:46.589Z,42.54
2023-05-30T12:40:13.783Z,41.75
2023-05-30T12:42:47.396Z,42.67
2023-05-30T12:45:15.720Z,42.09
2023-05-30T12:47:42.753Z,41.64
2023-05-30T12:50:10.406Z,42.25
2023-05-30T12:52:37.296Z,42.08
2023-05-30T12:55:04.715Z,42.32
2023-05-30T12:57:32.552Z,41.58
2023-05-30T12:59:59.796Z,41.58
2023-05-30T13:02:27.235Z,42.27
2023-05-30T13:04:55.766Z,42.59
2023-05-30T13:07:23.202Z,42.18
2023-05-30T13:09:50.653Z,41.76
2023-05-30T13:12:19.130Z,41.70
2023-05-30T13:14:47.706Z,41.41
2023-05-30T13:17:15.108Z,41.55
2023-05-30T13:19:42.174Z,41.26
2023-05-30T13:22:11.575Z,41.83
2023-05-30T13:24:39.560Z,41.53
2023-05-30T13:27:07.742Z,41.62
2023-05-30T13:29:35.845Z,41.63
2023-05-30T13:32:03.015Z,42.39
2023-05-30T13:34:30.826Z,41.72
2023-05-30T13:36:58.772Z,41.39
2023-05-30T13:39:26.539Z,41.37
2023-05-30T13:41:53.469Z,40.06
2023-05-30T13:44:20.958Z,40.65
2023-05-30T13:46:47.970Z,40.15
2023-05-30T13:49:15.011Z,40.11
2023-05-30T13:51:43.463Z,40.55
2023-05-30T13:54:10.591Z,40.10
2023-05-30T13:56:37.574Z,40.12
2023-05-30T13:59:04.594Z,40.14
2023-05-30T14:01:31.796Z,39.99
2023-05-30T14:04:00.971Z,40.02
2023-05-30T14:06:28.271Z,40.13
2023-05-30T14:08:55.461Z,40.12
2023-05-30T14:11:22.698Z,40.43
2023-05-30T14:13:50.429Z,40.42
2023-05-30T14:16:19.548Z,40.16
2023-05-30T14:18:47.397Z,39.96
2023-05-30T14:21:15.761Z,40.12
2023-05-30T14:23:43.302Z,39.95
2023-05-30T14:26:10.547Z,40.10
2023-05-30T14:28:40.314Z,38.86
2023-05-30T14:31:11.330Z,39.20
2023-05-30T14:33:38.515Z,39.20
2023-05-30T14:36:06.510Z,38.91
2023-05-30T14:38:33.509Z,38.42
2023-05-30T14:41:02.437Z,38.64
2023-05-30T14:43:29.924Z,39.63
2023-05-30T14:45:57.023Z,39.81
2023-05-30T14:48:24.064Z,40.35
2023-05-30T14:50:51.118Z,40.19
2023-05-30T14:53:18.140Z,40.25
2023-05-30T14:55:45.991Z,40.10
2023-05-30T14:58:12.936Z,40.70
2023-05-30T15:00:39.962Z,39.42
2023-05-30T15:03:07.362Z,40.46
2023-05-30T15:05:34.686Z,39.95
2023-05-30T15:08:01.959Z,40.20
2023-05-30T15:10:29.074Z,40.45
2023-05-30T15:12:56.058Z,40.22
2023-05-30T15:15:23.432Z,39.70
2023-05-30T15:17:50.495Z,39.71
2023-05-30T15:20:18.140Z,39.05
2023-05-30T15:22:45.060Z,38.94
2023-05-30T15:25:11.984Z,38.71
2023-05-30T15:27:38.925Z,39.11
2023-05-30T15:30:06.778Z,39.72
2023-05-30T15:32:33.724Z,40.61
2023-05-30T15:35:00.904Z,40.71
2023-05-30T15:37:27.886Z,40.88
2023-05-30T15:39:55.573Z,41.12
2023-05-30T15:42:22.581Z,40.39
2023-05-30T15:44:49.504Z,40.86
2023-05-30T15:47:16.459Z,40.60
2023-05-30T15:49:43.607Z,40.86
2023-05-30T15:52:10.777Z,40.70
2023-05-30T15:54:37.767Z,40.63
2023-05-30T15:57:06.450Z,40.51
2023-05-30T15:59:33.455Z,41.33
2023-05-30T16:02:03.129Z,40.78
2023-05-30T16:04:30.298Z,40.57
2023-05-30T16:06:58.431Z,40.34
2023-05-30T16:09:25.483Z,40.12
2023-05-30T16:11:52.512Z,40.49
2023-05-30T16:14:21.552Z,40.59
2023-05-30T16:16:48.487Z,40.28
2023-05-30T16:19:15.526Z,40.71
2023-05-30T16:21:42.554Z,40.03
2023-05-30T16:24:09.844Z,40.53
2023-05-30T16:26:36.854Z,40.37
2023-05-30T16:29:03.976Z,39.74
2023-05-30T16:31:31.140Z,40.01
2023-05-30T16:33:58.191Z,40.61
2023-05-30T16:36:28.742Z,39.63
2023-05-30T16:38:56.524Z,39.79
2023-05-30T16:41:23.810Z,39.89
2023-05-30T16:43:52.293Z,40.13
2023-05-30T16:46:19.250Z,40.46
2023-05-30T16:48:46.455Z,40.23
2023-05-30T16:51:19.820Z,39.91
2023-05-30T16:53:47.349Z,39.14
2023-05-30T16:56:17.971Z,39.06
2023-05-30T16:58:46.420Z,38.84
2023-05-30T17:01:14.266Z,39.02
2023-05-30T17:03:44.388Z,39.53
2023-05-30T17:06:11.916Z,39.57
2023-05-30T17:08:39.237Z,39.74
2023-05-30T17:11:06.307Z,39.29
2023-05-30T17:13:33.969Z,39.46
2023-05-30T17:16:01.736Z,39.51
2023-05-30T17:18:28.906Z,39.51
2023-05-30T17:20:57.130Z,39.24
2023-05-30T17:23:27.522Z,39.06
2023-05-30T17:26:02.141Z,38.99
2023-05-30T17:28:30.702Z,38.99
2023-05-30T17:30:57.899Z,38.70
2023-05-30T17:33:24.982Z,38.73
2023-05-30T17:35:52.480Z,39.21
2023-05-30T17:38:19.753Z,39.37
2023-05-30T17:40:48.607Z,39.43
2023-05-30T17:43:17.437Z,39.30
2023-05-30T17:45:44.901Z,39.26
2023-05-30T17:48:12.273Z,38.88
2023-05-30T17:50:40.158Z,39.02
2023-05-30T17:53:07.650Z,39.73
2023-05-30T17:55:34.896Z,39.17
2023-05-30T17:58:02.246Z,39.00
2023-05-30T18:00:30.624Z,38.98
2023-05-30T18:02:58.543Z,39.32
2023-05-30T18:05:27.953Z,38.97
2023-05-30T18:07:55.036Z,39.57
2023-05-30T18:10:22.207Z,39.66
2023-05-30T18:12:49.253Z,39.82
2023-05-30T18:15:16.300Z,39.10
2023-05-30T18:17:43.441Z,39.64
2023-05-30T18:20:11.764Z,39.83
2023-05-30T18:22:39.424Z,39.15
2023-05-30T18:25:07.197Z,38.72
2023-05-30T18:27:34.181Z,39.21
2023-05-30T18:30:02.068Z,39.69
2023-05-30T18:32:29.803Z,39.74
2023-05-30T18:34:56.965Z,39.64
2023-05-30T18:37:23.902Z,40.29
2023-05-30T18:39:52.158Z,40.26
2023-05-30T18:42:19.115Z,40.42
2023-05-30T18:44:46.283Z,40.15
2023-05-30T18:47:14.968Z,40.66
2023-05-30T18:49:43.572Z,41.07
2023-05-30T18:52:11.407Z,40.92
2023-05-30T18:54:40.088Z,41.43
2023-05-30T18:57:08.511Z,41.22
2023-05-30T18:59:37.343Z,41.28
2023-05-30T19:02:04.752Z,41.39
2023-05-30T19:04:31.855Z,41.63
2023-05-30T19:06:59.714Z,41.63
2023-05-30T19:09:26.854Z,42.52
2023-05-30T19:11:53.894Z,42.60
2023-05-30T19:14:21.273Z,41.80
2023-05-30T19:16:48.346Z,41.78
2023-05-30T19:19:16.184Z,42.21
2023-05-30T19:21:43.378Z,42.23
2023-05-30T19:24:10.527Z,42.15
2023-05-30T19:26:37.500Z,41.88
2023-05-30T19:29:04.442Z,42.49
2023-05-30T19:31:31.549Z,42.36
2023-05-30T19:33:58.474Z,42.46
2023-05-30T19:36:25.642Z,42.97
2023-05-30T19:38:52.809Z,43.11
2023-05-30T19:41:21.957Z,43.52
2023-05-30T19:43:50.403Z,42.92
2023-05-30T19:46:17.411Z,43.21
2023-05-30T19:48:44.375Z,43.76
2023-05-30T19:51:11.492Z,43.54
2023-05-30T19:53:38.459Z,43.70
2023-05-30T19:56:05.972Z,42.23
2023-05-30T19:58:33.103Z,41.82
2023-05-30T20:01:11.056Z,42.08
2023-05-30T20:03:39.142Z,42.29
2023-05-30T20:06:06.806Z,42.39
2023-05-30T20:08:33.956Z,42.44
2023-05-30T20:11:01.375Z,42.82
2023-05-30T20:13:30.616Z,42.55
2023-05-30T20:15:57.666Z,42.30
2023-05-30T20:18:24.645Z,43.33
2023-05-30T20:20:56.472Z,43.58
2023-05-30T20:23:24.682Z,44.50
2023-05-30T20:25:51.741Z,44.72
2023-05-30T20:28:20.672Z,44.13
2023-05-30T20:30:47.684Z,44.51
2023-05-30T20:33:15.011Z,44.34
2023-05-30T20:35:42.000Z,45.03
2023-05-30T20:38:08.957Z,44.99
2023-05-30T20:40:36.424Z,44.90
2023-05-30T20:43:03.398Z,44.66
2023-05-30T20:45:30.904Z,44.84
2023-05-30T20:47:58.035Z,44.66
2023-05-30T20:50:25.911Z,45.25
2023-05-30T20:52:55.421Z,45.78
2023-05-30T20:55:26.073Z,46.40
2023-05-30T20:57:53.060Z,46.20
2023-05-30T21:00:20.522Z,47.01
2023-05-30T21:02:47.714Z,47.31
2023-05-30T21:05:14.802Z,47.85
2023-05-30T21:07:41.766Z,47.91
2023-05-30T21:10:10.164Z,48.31
2023-05-30T21:12:37.690Z,48.65
2023-05-30T21:15:05.406Z,49.00
2023-05-30T21:17:32.385Z,49.32
2023-05-30T21:19:59.395Z,50.10
2023-05-30T21:22:26.604Z,50.26
2023-05-30T21:24:53.587Z,50.72
2023-05-30T21:27:20.631Z,50.56
2023-05-30T21:29:47.652Z,51.16
2023-05-30T21:32:14.642Z,50.44
2023-05-30T21:34:41.539Z,51.15
2023-05-30T21:37:08.473Z,51.72
2023-05-30T21:39:36.235Z,51.98
2023-05-30T21:42:03.748Z,51.31
2023-05-30T21:44:30.905Z,51.68
2023-05-30T21:46:57.828Z,51.67
2023-05-30T21:49:24.716Z,51.31
2023-05-30T21:51:51.714Z,51.64
2023-05-30T21:54:43.729Z,52.21
2023-05-30T21:57:10.846Z,51.93
2023-05-30T21:59:38.777Z,51.74
2023-05-30T22:02:07.475Z,52.36
2023-05-30T22:04:35.483Z,52.32
2023-05-30T22:07:04.014Z,52.65
2023-05-30T22:09:31.079Z,53.17
2023-05-30T22:11:58.051Z,52.84
2023-05-30T22:14:25.105Z,53.30
2023-05-30T22:16:52.045Z,53.15
2023-05-30T22:19:19.020Z,52.75
2023-05-30T22:22:01.439Z,52.89
2023-05-30T22:24:30.306Z,52.87
2023-05-30T22:26:57.293Z,53.26
2023-05-30T22:29:24.268Z,53.13
2023-05-30T22:31:51.226Z,53.36
2023-05-30T22:34:18.332Z,53.00
2023-05-30T22:36:47.188Z,52.78
2023-05-30T22:39:14.531Z,52.76
2023-05-30T22:41:41.808Z,53.06
2023-05-30T22:44:08.788Z,53.25
2023-05-30T22:46:35.697Z,53.23
2023-05-30T22:49:02.662Z,53.13
2023-05-30T22:51:29.721Z,53.09
2023-05-30T22:54:01.011Z,53.28
2023-05-30T22:56:28.887Z,53.17
2023-05-30T22:58:55.961Z,53.45
2023-05-30T23:01:22.937Z,53.47
2023-05-30T23:03:49.939Z,53.79
2023-05-30T23:06:16.857Z,53.91
2023-05-30T23:08:43.862Z,53.99
2023-05-30T23:11:11.231Z,54.15
2023-05-30T23:13:38.839Z,53.77
2023-05-30T23:16:06.387Z,54.41
2023-05-30T23:18:33.780Z,54.57
2023-05-30T23:21:01.302Z,54.61
2023-05-30T23:23:28.832Z,54.45
2023-05-30T23:25:55.872Z,55.00
2023-05-30T23:28:23.429Z,55.24
2023-05-30T23:30:50.335Z,55.26
2023-05-30T23:33:17.323Z,55.47
2023-05-30T23:35:44.269Z,55.85
2023-05-30T23:38:11.723Z,55.56
2023-05-30T23:40:38.669Z,56.21
2023-05-30T23:43:05.641Z,56.03
2023-05-30T23:45:32.568Z,56.08
2023-05-30T23:47:59.618Z,56.11
2023-05-30T23:50:26.732Z,56.70
2023-05-30T23:52:53.630Z,57.01
2023-05-30T23:55:20.689Z,57.16
2023-05-30T23:57:47.808Z,57.00
